Time;durP1;ratioP1;P1;durP2;ratioP2;P2;SDS_P1;SDS_P2;PMS_P1;PMS_P2;Temp;Humidity;BMP_temperature;BMP_pressure;BME280_temperature;BME280_humidity;BME280_pressure;Samples;Min_cycle;Max_cycle;Signal;HPM_P1;HPM_P2
2022/01/08 00:01:51;;;;;;;;;;;1.70;99.90;;;;;;5110314;28;19920;-77
2022/01/08 00:04:18;;;;;;;;;;;1.70;99.90;;;;;;5089590;28;19920;-77
2022/01/08 00:06:44;;;;;;;;;;;1.70;99.90;;;;;;5085446;28;19924;-77
2022/01/08 00:09:11;;;;;;;;;;;1.70;99.90;;;;;;5080290;28;19920;-76
2022/01/08 00:11:41;;;;;;;;;;;1.70;99.90;;;;;;5083007;28;20282;-76
2022/01/08 00:14:10;;;;;;;;;;;1.70;99.90;;;;;;5096266;28;20019;-76
2022/01/08 00:16:37;;;;;;;;;;;1.70;99.90;;;;;;5092829;28;19924;-76
2022/01/08 00:19:04;;;;;;;;;;;1.70;99.90;;;;;;5083112;28;19926;-75
2022/01/08 00:21:32;;;;;;;;;;;1.70;99.90;;;;;;5107176;28;19920;-75
2022/01/08 00:23:59;;;;;;;;;;;1.70;99.90;;;;;;5087156;28;19924;-76
2022/01/08 00:26:25;;;;;;;;;;;1.60;99.90;;;;;;5089364;28;20011;-77
2022/01/08 00:28:52;;;;;;;;;;;1.60;99.90;;;;;;5087515;28;19923;-75
2022/01/08 00:31:19;;;;;;;;;;;1.60;99.90;;;;;;5092842;28;19947;-75
2022/01/08 00:33:47;;;;;;;;;;;1.60;99.90;;;;;;5108969;28;19935;-75
2022/01/08 00:36:14;;;;;;;;;;;1.60;99.90;;;;;;5085158;28;19924;-76
2022/01/08 00:38:41;;;;;;;;;;;1.60;99.90;;;;;;5081088;28;20367;-76
2022/01/08 00:41:07;;;;;;;;;;;1.60;99.90;;;;;;5081802;28;19920;-75
2022/01/08 00:43:34;;;;;;;;;;;1.60;99.90;;;;;;5077386;28;19924;-75
2022/01/08 00:46:01;;;;;;;;;;;1.60;99.90;;;;;;5083154;28;19924;-75
2022/01/08 00:48:28;;;;;;;;;;;1.60;99.90;;;;;;5078598;28;20310;-75
2022/01/08 00:50:57;;;;;;;;;;;1.60;99.90;;;;;;5077167;28;20135;-75
2022/01/08 00:53:23;;;;;;;;;;;1.60;99.90;;;;;;5084404;28;19954;-75
2022/01/08 00:55:50;;;;;;;;;;;1.60;99.90;;;;;;5081573;28;20442;-76
2022/01/08 00:58:17;;;;;;;;;;;1.70;99.90;;;;;;5090364;28;19985;-76
2022/01/08 01:00:44;;;;;;;;;;;1.70;99.90;;;;;;5086192;28;19925;-75
2022/01/08 01:03:10;;;;;;;;;;;1.70;99.90;;;;;;5074386;28;20020;-76
2022/01/08 01:05:38;;;;;;;;;;;1.70;99.90;;;;;;5089968;28;19933;-75
2022/01/08 01:08:05;;;;;;;;;;;1.70;99.90;;;;;;5098789;28;19931;-75
2022/01/08 01:10:32;;;;;;;;;;;1.60;99.90;;;;;;5083757;28;19963;-75
2022/01/08 01:12:58;;;;;;;;;;;1.70;99.90;;;;;;5089057;28;19924;-75
2022/01/08 01:15:25;;;;;;;;;;;1.70;99.90;;;;;;5084666;28;19931;-75
2022/01/08 01:17:52;;;;;;;;;;;1.70;99.90;;;;;;5088624;28;19925;-76
2022/01/08 01:20:20;;;;;;;;;;;1.70;99.90;;;;;;5089737;28;20378;-76
2022/01/08 01:25:19;;;;;;;;;;;1.70;99.90;;;;;;5079265;28;19924;-75
2022/01/08 01:30:28;;;;;;;;;;;1.70;99.90;;;;;;5077412;28;20012;-75
2022/01/08 01:41:27;;;;;;;;;;;1.70;99.90;;;;;;5092654;28;19924;-75
2022/01/08 01:49:19;;;;;;;;;;;1.60;99.90;;;;;;5085071;28;20817;-75
2022/01/08 01:51:46;;;;;;;;;;;1.60;99.90;;;;;;5094418;28;19932;-74
2022/01/08 01:54:13;;;;;;;;;;;1.60;99.90;;;;;;5080907;28;19924;-75
2022/01/08 01:56:40;;;;;;;;;;;1.50;99.90;;;;;;5077366;28;20332;-75
2022/01/08 01:59:06;;;;;;;;;;;1.40;99.90;;;;;;5076615;28;19935;-75
2022/01/08 02:01:33;;;;;;;;;;;1.40;99.90;;;;;;5080460;28;20035;-74
2022/01/08 02:04:00;;;;;;;;;;;1.30;99.90;;;;;;5075927;28;19924;-75
2022/01/08 02:06:27;;;;;;;;;;;1.30;99.90;;;;;;5073968;28;19969;-75
2022/01/08 02:08:53;;;;;;;;;;;1.20;99.90;;;;;;5080453;28;20007;-74
2022/01/08 02:11:21;;;;;;;;;;;1.10;99.90;;;;;;5082827;28;19963;-74
2022/01/08 02:13:50;;;;;;;;;;;1.10;99.90;;;;;;5078084;28;19925;-74
2022/01/08 02:16:17;;;;;;;;;;;1.00;99.90;;;;;;5076613;28;20009;-75
2022/01/08 02:18:45;;;;;;;;;;;1.00;99.90;;;;;;5094351;28;19940;-74
2022/01/08 02:21:12;;;;;;;;;;;0.90;99.90;;;;;;5087702;28;20006;-75
2022/01/08 02:23:40;;;;;;;;;;;0.80;99.90;;;;;;5081620;28;20444;-75
2022/01/08 02:26:07;;;;;;;;;;;0.80;99.90;;;;;;5073084;28;19933;-74
2022/01/08 02:28:35;;;;;;;;;;;0.80;99.90;;;;;;5079153;28;20329;-75
2022/01/08 02:31:02;;;;;;;;;;;0.70;99.90;;;;;;5080414;28;19931;-75
2022/01/08 02:33:29;;;;;;;;;;;0.70;99.90;;;;;;5081996;28;20344;-75
2022/01/08 02:35:56;;;;;;;;;;;0.60;99.90;;;;;;5080741;28;20428;-75
2022/01/08 02:38:24;;;;;;;;;;;0.50;99.90;;;;;;5073819;28;19928;-75
2022/01/08 02:40:56;;;;;;;;;;;0.50;99.90;;;;;;5078716;28;19949;-75
2022/01/08 02:43:23;;;;;;;;;;;0.40;99.90;;;;;;5073922;28;19925;-75
2022/01/08 02:45:50;;;;;;;;;;;0.30;99.90;;;;;;5081309;28;20316;-75
2022/01/08 02:48:18;;;;;;;;;;;0.20;99.90;;;;;;5083332;28;19928;-76
2022/01/08 02:50:45;;;;;;;;;;;0.10;99.90;;;;;;5074315;28;19924;-76
2022/01/08 02:53:12;;;;;;;;;;;0.00;99.90;;;;;;5077656;28;19931;-76
2022/01/08 02:55:40;;;;;;;;;;;-0.20;99.90;;;;;;5081060;28;20441;-76
2022/01/08 02:58:07;;;;;;;;;;;-0.20;99.90;;;;;;5091141;28;19930;-76
2022/01/08 03:00:33;;;;;;;;;;;-0.30;99.90;;;;;;5089031;28;19924;-77
2022/01/08 03:03:00;;;;;;;;;;;-0.30;99.90;;;;;;5091697;28;19955;-77
2022/01/08 03:05:28;;;;;;;;;;;-0.40;99.90;;;;;;5083598;28;19986;-76
2022/01/08 03:07:54;;;;;;;;;;;-0.40;99.90;;;;;;5106400;28;19924;-77
2022/01/08 03:10:21;;;;;;;;;;;-0.40;99.90;;;;;;5089863;28;19924;-76
2022/01/08 03:12:49;;;;;;;;;;;-0.40;99.90;;;;;;5075340;28;20019;-76
2022/01/08 03:15:20;;;;;;;;;;;-0.30;99.90;;;;;;5085876;28;20630;-76
2022/01/08 03:17:47;;;;;;;;;;;-0.30;99.90;;;;;;5071919;28;19925;-75
2022/01/08 03:20:14;;;;;;;;;;;-0.30;99.90;;;;;;5077199;28;19977;-76
2022/01/08 03:22:43;;;;;;;;;;;-0.30;99.90;;;;;;5086446;28;19924;-76
2022/01/08 03:25:09;;;;;;;;;;;-0.40;99.90;;;;;;5092415;28;19924;-76
2022/01/08 03:27:37;;;;;;;;;;;-0.40;99.90;;;;;;5086432;28;19924;-77
2022/01/08 03:30:04;;;;;;;;;;;-0.40;99.90;;;;;;5103503;28;19924;-77
2022/01/08 03:32:31;;;;;;;;;;;-0.40;99.90;;;;;;5074131;28;20003;-77
2022/01/08 03:34:59;;;;;;;;;;;-0.40;99.90;;;;;;5086742;28;19924;-78
2022/01/08 03:37:25;;;;;;;;;;;-0.40;99.90;;;;;;5082335;28;20015;-77
2022/01/08 03:39:52;;;;;;;;;;;-0.50;99.90;;;;;;5082334;28;20031;-78
2022/01/08 03:42:19;;;;;;;;;;;-0.50;99.90;;;;;;5071582;28;19993;-77
2022/01/08 03:44:45;;;;;;;;;;;-0.50;99.90;;;;;;5073189;28;19935;-76
2022/01/08 03:49:55;;;;;;;;;;;-0.50;99.90;;;;;;5073021;28;19932;-77
2022/01/08 03:52:22;;;;;;;;;;;-0.50;99.90;;;;;;5087885;28;19966;-77
2022/01/08 03:54:54;;;;;;;;;;;-0.50;99.90;;;;;;5090172;28;20011;-77
2022/01/08 03:57:21;;;;;;;;;;;-0.50;99.90;;;;;;5080210;28;19924;-77
2022/01/08 03:59:48;;;;;;;;;;;-0.50;99.90;;;;;;5072760;28;19928;-77
2022/01/08 04:02:15;;;;;;;;;;;-0.50;99.90;;;;;;5071906;28;19924;-77
2022/01/08 04:04:42;;;;;;;;;;;-0.50;99.90;;;;;;5086843;28;20007;-76
2022/01/08 04:07:09;;;;;;;;;;;-0.50;99.90;;;;;;5078858;28;19931;-76
2022/01/08 04:09:37;;;;;;;;;;;-0.50;99.90;;;;;;5074618;28;19956;-75
2022/01/08 04:12:05;;;;;;;;;;;-0.50;99.90;;;;;;5086846;28;19947;-75
2022/01/08 04:14:46;;;;;;;;;;;-0.50;99.90;;;;;;5079489;28;20014;-75
2022/01/08 04:17:14;;;;;;;;;;;-0.40;99.90;;;;;;5087492;28;19928;-75
2022/01/08 04:19:41;;;;;;;;;;;-0.40;99.90;;;;;;5090665;28;19994;-75
2022/01/08 04:22:12;;;;;;;;;;;-0.40;99.90;;;;;;5075604;28;20015;-75
2022/01/08 04:24:40;;;;;;;;;;;-0.40;99.90;;;;;;5086990;28;19924;-76
2022/01/08 04:27:08;;;;;;;;;;;-0.40;99.90;;;;;;5071986;28;19928;-74
2022/01/08 04:29:35;;;;;;;;;;;-0.40;99.90;;;;;;5071607;28;19924;-75
2022/01/08 04:32:01;;;;;;;;;;;-0.40;99.90;;;;;;5087442;28;19924;-75
2022/01/08 04:34:28;;;;;;;;;;;-0.40;99.90;;;;;;5078600;28;19924;-77
2022/01/08 04:36:55;;;;;;;;;;;-0.30;99.90;;;;;;5084820;28;19925;-77
2022/01/08 04:39:21;;;;;;;;;;;-0.30;99.90;;;;;;5085491;28;20526;-77
2022/01/08 04:41:48;;;;;;;;;;;-0.40;99.90;;;;;;5080090;28;19928;-76
2022/01/08 04:44:15;;;;;;;;;;;-0.30;99.90;;;;;;5083297;28;19924;-75
2022/01/08 04:46:42;;;;;;;;;;;-0.30;99.90;;;;;;5078415;28;19924;-74
2022/01/08 04:49:09;;;;;;;;;;;-0.30;99.90;;;;;;5077099;28;19924;-74
2022/01/08 04:51:36;;;;;;;;;;;-0.30;99.90;;;;;;5082765;28;19957;-75
2022/01/08 04:54:03;;;;;;;;;;;-0.30;99.90;;;;;;5100461;28;20426;-74
2022/01/08 04:56:29;;;;;;;;;;;-0.30;99.90;;;;;;5091587;28;19946;-74
2022/01/08 04:58:56;;;;;;;;;;;-0.30;99.90;;;;;;5080902;28;19931;-75
2022/01/08 05:01:23;;;;;;;;;;;-0.30;99.90;;;;;;5090077;28;20321;-75
2022/01/08 05:03:49;;;;;;;;;;;-0.30;99.90;;;;;;5089522;28;19924;-75
2022/01/08 05:06:16;;;;;;;;;;;-0.30;99.90;;;;;;5082860;28;19969;-75
2022/01/08 05:08:43;;;;;;;;;;;-0.30;99.90;;;;;;5075043;28;20019;-75
2022/01/08 05:11:10;;;;;;;;;;;-0.20;99.90;;;;;;5073521;28;19974;-75
2022/01/08 05:13:38;;;;;;;;;;;-0.30;99.90;;;;;;5086756;28;20353;-75
2022/01/08 05:16:05;;;;;;;;;;;-0.20;99.90;;;;;;5085497;28;19930;-75
2022/01/08 05:18:33;;;;;;;;;;;-0.20;99.90;;;;;;5093159;28;20729;-76
2022/01/08 05:23:56;;;;;;;;;;;-0.20;99.90;;;;;;5091109;28;20023;-75
2022/01/08 05:26:25;;;;;;;;;;;-0.20;99.90;;;;;;5068830;28;20091;-75
2022/01/08 05:28:52;;;;;;;;;;;-0.20;99.90;;;;;;5069160;28;20019;-76
2022/01/08 05:31:23;;;;;;;;;;;-0.20;99.90;;;;;;5074779;28;20007;-75
2022/01/08 05:33:51;;;;;;;;;;;-0.20;99.90;;;;;;5095351;28;19924;-76
2022/01/08 05:36:18;;;;;;;;;;;-0.20;99.90;;;;;;5068927;28;19938;-76
2022/01/08 05:38:45;;;;;;;;;;;-0.20;99.90;;;;;;5082754;28;19928;-77
2022/01/08 05:41:11;;;;;;;;;;;-0.20;99.90;;;;;;5086578;28;20405;-76
2022/01/08 05:43:38;;;;;;;;;;;-0.20;99.90;;;;;;5083992;28;20022;-76
2022/01/08 05:46:05;;;;;;;;;;;-0.10;99.90;;;;;;5093152;28;19955;-76
2022/01/08 05:48:32;;;;;;;;;;;-0.10;99.90;;;;;;5086571;28;19963;-76
2022/01/08 05:50:58;;;;;;;;;;;-0.10;99.90;;;;;;5085715;28;20505;-76
2022/01/08 05:53:25;;;;;;;;;;;-0.10;99.90;;;;;;5087448;28;20023;-77
2022/01/08 05:55:53;;;;;;;;;;;-0.10;99.90;;;;;;5092958;28;19931;-77
2022/01/08 05:58:20;;;;;;;;;;;0.00;99.90;;;;;;5082631;28;19975;-77
2022/01/08 06:00:46;;;;;;;;;;;0.00;99.90;;;;;;5081661;28;19925;-77
2022/01/08 06:03:13;;;;;;;;;;;-0.10;99.90;;;;;;5083307;28;19931;-77
2022/01/08 06:05:40;;;;;;;;;;;-0.10;99.90;;;;;;5088707;28;20590;-77
2022/01/08 06:08:06;;;;;;;;;;;-0.10;99.90;;;;;;5080135;28;19932;-77
2022/01/08 06:10:33;;;;;;;;;;;0.00;99.90;;;;;;5078112;28;20429;-77
2022/01/08 06:13:00;;;;;;;;;;;-0.10;99.90;;;;;;5075749;28;19931;-77
2022/01/08 06:15:27;;;;;;;;;;;-0.10;99.90;;;;;;5076475;28;19924;-78
2022/01/08 06:17:53;;;;;;;;;;;0.00;99.90;;;;;;5070889;28;19962;-78
2022/01/08 06:20:27;;;;;;;;;;;0.00;99.90;;;;;;5081339;28;20248;-78
2022/01/08 06:22:58;;;;;;;;;;;0.00;99.90;;;;;;5093798;28;19934;-78
2022/01/08 06:25:24;;;;;;;;;;;0.00;99.90;;;;;;5077987;28;19924;-77
2022/01/08 06:27:55;;;;;;;;;;;0.00;99.90;;;;;;5079504;28;19932;-77
2022/01/08 06:30:21;;;;;;;;;;;0.00;99.90;;;;;;5084650;28;19928;-77
2022/01/08 06:32:48;;;;;;;;;;;0.10;99.90;;;;;;5076838;28;20023;-78
2022/01/08 06:35:29;;;;;;;;;;;0.10;99.90;;;;;;5073582;28;19924;-78
2022/01/08 06:37:56;;;;;;;;;;;0.10;99.90;;;;;;5081074;28;19934;-77
2022/01/08 06:40:22;;;;;;;;;;;0.10;99.90;;;;;;5075832;28;20014;-77
2022/01/08 06:42:49;;;;;;;;;;;0.00;99.90;;;;;;5084329;28;19978;-78
2022/01/08 06:45:16;;;;;;;;;;;0.00;99.90;;;;;;5083778;28;19924;-78
2022/01/08 06:47:45;;;;;;;;;;;0.00;99.90;;;;;;5084117;28;20011;-77
2022/01/08 06:50:12;;;;;;;;;;;-0.10;99.90;;;;;;5079701;28;20386;-77
2022/01/08 06:52:39;;;;;;;;;;;-0.20;99.90;;;;;;5089334;28;19927;-78
2022/01/08 06:55:07;;;;;;;;;;;-0.30;99.90;;;;;;5090031;28;19924;-77
2022/01/08 06:57:34;;;;;;;;;;;-0.40;99.90;;;;;;5076381;28;19924;-77
2022/01/08 07:00:03;;;;;;;;;;;-0.50;99.90;;;;;;5086757;28;20393;-77
2022/01/08 07:02:29;;;;;;;;;;;-0.60;99.90;;;;;;5084337;28;19931;-77
2022/01/08 07:04:57;;;;;;;;;;;-0.70;99.90;;;;;;5077629;28;20351;-78
2022/01/08 07:07:24;;;;;;;;;;;-0.70;99.90;;;;;;5084649;28;20629;-78
2022/01/08 07:09:51;;;;;;;;;;;-0.70;99.90;;;;;;5087326;28;19924;-77
2022/01/08 07:12:18;;;;;;;;;;;-0.60;99.90;;;;;;5059878;28;20409;-78
2022/01/08 07:14:45;;;;;;;;;;;-0.60;99.90;;;;;;5095336;28;19931;-77
2022/01/08 07:17:14;;;;;;;;;;;-0.60;99.90;;;;;;5078184;28;19924;-78
2022/01/08 07:19:40;;;;;;;;;;;-0.60;99.90;;;;;;5100414;28;20023;-77
2022/01/08 07:22:07;;;;;;;;;;;-0.60;99.90;;;;;;5074566;28;19931;-77
2022/01/08 07:24:34;;;;;;;;;;;-0.60;99.90;;;;;;5081470;28;20011;-77
2022/01/08 07:27:01;;;;;;;;;;;-0.60;99.90;;;;;;5093358;28;19930;-76
2022/01/08 07:29:27;;;;;;;;;;;-0.60;99.90;;;;;;5066118;28;19955;-77
2022/01/08 07:31:54;;;;;;;;;;;-0.60;99.90;;;;;;5075879;28;19963;-76
2022/01/08 07:34:21;;;;;;;;;;;-0.60;99.90;;;;;;5082607;28;19930;-77
2022/01/08 07:36:47;;;;;;;;;;;-0.50;99.90;;;;;;5072477;28;19924;-77
2022/01/08 07:39:14;;;;;;;;;;;-0.50;99.90;;;;;;5078386;28;19928;-76
2022/01/08 07:41:40;;;;;;;;;;;-0.50;99.90;;;;;;5085179;28;20022;-77
2022/01/08 07:44:07;;;;;;;;;;;-0.40;99.90;;;;;;5089521;28;19970;-78
2022/01/08 07:46:34;;;;;;;;;;;-0.40;99.90;;;;;;5078069;28;20015;-78
2022/01/08 07:49:01;;;;;;;;;;;-0.40;99.90;;;;;;5065179;28;20014;-77
2022/01/08 07:51:28;;;;;;;;;;;-0.30;99.90;;;;;;5084754;28;20523;-78
2022/01/08 07:53:55;;;;;;;;;;;-0.30;99.90;;;;;;5085525;28;20019;-77
2022/01/08 07:56:22;;;;;;;;;;;-0.30;99.90;;;;;;5078855;28;20023;-78
2022/01/08 07:58:48;;;;;;;;;;;-0.30;99.90;;;;;;5081247;28;19925;-78
2022/01/08 08:01:21;;;;;;;;;;;-0.30;99.90;;;;;;5081810;28;19970;-78
2022/01/08 08:03:48;;;;;;;;;;;-0.30;99.90;;;;;;5082392;28;19931;-77
2022/01/08 08:06:15;;;;;;;;;;;-0.20;99.90;;;;;;5074046;28;20337;-77
2022/01/08 08:08:44;;;;;;;;;;;-0.20;99.90;;;;;;5076182;28;19924;-77
2022/01/08 08:11:11;;;;;;;;;;;-0.20;99.90;;;;;;5079214;28;19924;-77
2022/01/08 08:13:38;;;;;;;;;;;-0.10;99.90;;;;;;5078211;28;19924;-77
2022/01/08 08:16:05;;;;;;;;;;;-0.10;99.90;;;;;;5085364;28;20019;-78
2022/01/08 08:18:31;;;;;;;;;;;-0.10;99.90;;;;;;5090219;28;19974;-77
2022/01/08 08:20:58;;;;;;;;;;;-0.10;99.90;;;;;;5087612;28;19962;-77
2022/01/08 08:23:25;;;;;;;;;;;-0.10;99.90;;;;;;5085646;28;20444;-77
2022/01/08 08:25:51;;;;;;;;;;;-0.10;99.90;;;;;;5091898;28;19930;-76
2022/01/08 08:28:18;;;;;;;;;;;-0.10;99.90;;;;;;5098518;28;20390;-76
2022/01/08 08:30:45;;;;;;;;;;;-0.10;99.90;;;;;;5084183;28;19930;-76
2022/01/08 08:33:12;;;;;;;;;;;-0.10;99.90;;;;;;5084274;28;19938;-76
2022/01/08 08:35:39;;;;;;;;;;;0.00;99.90;;;;;;5076974;28;20011;-76
2022/01/08 08:38:06;;;;;;;;;;;0.00;99.90;;;;;;5086229;28;20283;-76
2022/01/08 08:40:32;;;;;;;;;;;0.00;99.90;;;;;;5082541;28;20015;-76
2022/01/08 08:42:59;;;;;;;;;;;0.00;99.90;;;;;;5080770;28;20011;-75
2022/01/08 08:45:26;;;;;;;;;;;0.10;99.90;;;;;;5079749;28;20353;-76
2022/01/08 08:47:55;;;;;;;;;;;0.20;99.90;;;;;;5075432;28;20503;-76
2022/01/08 08:50:23;;;;;;;;;;;0.30;99.90;;;;;;5079660;28;19931;-75
2022/01/08 08:52:52;;;;;;;;;;;0.30;99.90;;;;;;5078560;28;19973;-76
2022/01/08 08:55:27;;;;;;;;;;;0.40;99.90;;;;;;5089405;28;19931;-76
2022/01/08 08:57:54;;;;;;;;;;;0.40;99.90;;;;;;5080703;28;19931;-73
2022/01/08 09:00:20;;;;;;;;;;;0.70;99.90;;;;;;5084615;28;19924;-74
2022/01/08 09:02:52;;;;;;;;;;;0.80;99.90;;;;;;5084306;28;20011;-74
2022/01/08 09:05:19;;;;;;;;;;;0.80;99.90;;;;;;5085154;28;19931;-74
2022/01/08 09:07:46;;;;;;;;;;;0.70;99.90;;;;;;5077628;28;19924;-75
2022/01/08 09:10:13;;;;;;;;;;;0.60;99.90;;;;;;5079647;28;19925;-75
2022/01/08 09:12:40;;;;;;;;;;;0.60;99.90;;;;;;5086531;28;19928;-75
2022/01/08 09:15:08;;;;;;;;;;;0.50;99.90;;;;;;5066704;28;19928;-75
2022/01/08 09:17:36;;;;;;;;;;;0.50;99.90;;;;;;5083170;28;19930;-75
2022/01/08 09:20:04;;;;;;;;;;;0.50;99.90;;;;;;5087556;28;19924;-75
2022/01/08 09:22:31;;;;;;;;;;;0.60;99.90;;;;;;5087960;28;19924;-75
2022/01/08 09:24:58;;;;;;;;;;;0.60;99.90;;;;;;5084371;28;19964;-75
2022/01/08 09:27:24;;;;;;;;;;;0.70;99.90;;;;;;5088934;28;19928;-76
2022/01/08 09:29:51;;;;;;;;;;;0.70;99.90;;;;;;5081506;28;19947;-75
2022/01/08 09:32:18;;;;;;;;;;;0.80;99.90;;;;;;5074159;28;19925;-75
2022/01/08 09:34:45;;;;;;;;;;;0.90;99.90;;;;;;5086060;28;19925;-76
2022/01/08 09:37:11;;;;;;;;;;;1.00;99.90;;;;;;5090634;28;20010;-76
2022/01/08 09:39:39;;;;;;;;;;;1.50;99.90;;;;;;5086106;28;20019;-75
2022/01/08 09:42:08;;;;;;;;;;;2.00;99.90;;;;;;5085355;28;19928;-75
2022/01/08 09:44:37;;;;;;;;;;;2.30;99.90;;;;;;5101781;28;20428;-76
2022/01/08 09:47:05;;;;;;;;;;;2.20;99.90;;;;;;5087433;28;19920;-75
2022/01/08 09:49:32;;;;;;;;;;;2.20;99.90;;;;;;5084274;28;19926;-75
2022/01/08 09:52:00;;;;;;;;;;;2.20;99.90;;;;;;5082737;28;19950;-75
2022/01/08 09:54:27;;;;;;;;;;;2.20;99.90;;;;;;5073860;28;19927;-75
2022/01/08 09:56:54;;;;;;;;;;;2.20;99.90;;;;;;5078135;28;19927;-76
2022/01/08 09:59:21;;;;;;;;;;;2.60;99.90;;;;;;5085130;28;20012;-78
2022/01/08 10:01:52;;;;;;;;;;;3.30;99.90;;;;;;5075990;28;19920;-76
2022/01/08 10:04:23;;;;;;;;;;;3.50;99.90;;;;;;5075673;28;19920;-77
2022/01/08 10:06:50;;;;;;;;;;;3.70;99.90;;;;;;5074642;28;20325;-78
2022/01/08 10:09:17;;;;;;;;;;;4.10;99.90;;;;;;5085365;28;19923;-76
2022/01/08 10:11:50;;;;;;;;;;;4.50;99.90;;;;;;5080085;28;19921;-77
2022/01/08 10:14:28;;;;;;;;;;;5.00;99.90;;;;;;5079776;28;19926;-75
2022/01/08 10:17:13;;;;;;;;;;;5.60;99.90;;;;;;5075545;28;19924;-75
2022/01/08 10:19:41;;;;;;;;;;;5.70;99.90;;;;;;5077060;28;20328;-75
2022/01/08 10:22:15;;;;;;;;;;;5.90;99.90;;;;;;5068032;28;20016;-76
2022/01/08 10:24:42;;;;;;;;;;;5.90;99.90;;;;;;5082008;28;19920;-75
2022/01/08 10:27:09;;;;;;;;;;;5.90;99.90;;;;;;5074736;28;19943;-76
2022/01/08 10:29:36;;;;;;;;;;;6.10;99.90;;;;;;5084582;28;19920;-75
2022/01/08 10:32:07;;;;;;;;;;;6.30;99.90;;;;;;5078868;28;20369;-74
2022/01/08 10:34:34;;;;;;;;;;;6.40;99.90;;;;;;5077406;28;20290;-74
2022/01/08 10:37:02;;;;;;;;;;;6.70;99.90;;;;;;5075840;28;19920;-74
2022/01/08 10:39:33;;;;;;;;;;;6.60;99.90;;;;;;5074109;28;20290;-74
2022/01/08 10:42:06;;;;;;;;;;;6.20;99.90;;;;;;5088310;28;19920;-75
2022/01/08 10:44:33;;;;;;;;;;;5.90;99.90;;;;;;5088983;28;19963;-74
2022/01/08 10:47:02;;;;;;;;;;;5.20;99.90;;;;;;5076666;28;19925;-72
2022/01/08 10:49:33;;;;;;;;;;;4.60;99.90;;;;;;5095875;28;19920;-72
2022/01/08 10:52:01;;;;;;;;;;;4.20;99.90;;;;;;5091442;28;20384;-72
2022/01/08 10:54:29;;;;;;;;;;;4.00;99.90;;;;;;5076141;28;20018;-72
2022/01/08 10:57:02;;;;;;;;;;;4.00;99.90;;;;;;5080364;28;20549;-72
2022/01/08 10:59:30;;;;;;;;;;;3.80;99.90;;;;;;5076198;28;19942;-73
2022/01/08 11:02:09;;;;;;;;;;;3.60;99.90;;;;;;5077597;28;20459;-73
2022/01/08 11:04:36;;;;;;;;;;;3.50;99.90;;;;;;5072143;28;20018;-72
2022/01/08 11:07:30;;;;;;;;;;;3.70;99.90;;;;;;5077171;28;20389;-73
2022/01/08 11:10:03;;;;;;;;;;;4.60;99.90;;;;;;5075866;28;19950;-73
2022/01/08 11:12:35;;;;;;;;;;;5.00;99.90;;;;;;5085953;28;19923;-73
2022/01/08 11:17:50;;;;;;;;;;;5.00;99.90;;;;;;5073229;28;19966;-74
2022/01/08 11:20:18;;;;;;;;;;;5.00;99.90;;;;;;5085400;28;19966;-75
2022/01/08 11:22:49;;;;;;;;;;;5.00;99.90;;;;;;5100360;28;20448;-74
2022/01/08 11:25:23;;;;;;;;;;;5.30;99.90;;;;;;5078373;28;19920;-75
2022/01/08 11:28:05;;;;;;;;;;;5.40;99.90;;;;;;5086431;28;19920;-75
2022/01/08 11:30:38;;;;;;;;;;;5.50;99.90;;;;;;5090160;28;19920;-75
2022/01/08 11:33:25;;;;;;;;;;;5.40;99.90;;;;;;5083875;28;19952;-75
2022/01/08 11:35:52;;;;;;;;;;;5.00;99.90;;;;;;5088075;28;19920;-74
2022/01/08 11:38:21;;;;;;;;;;;4.80;99.90;;;;;;5080526;28;19924;-74
2022/01/08 11:40:49;;;;;;;;;;;4.70;99.90;;;;;;5086987;28;19978;-76
2022/01/08 11:43:17;;;;;;;;;;;4.80;99.90;;;;;;5079813;28;19920;-76
2022/01/08 11:46:01;;;;;;;;;;;5.00;99.90;;;;;;5073498;28;19921;-75
2022/01/08 11:48:30;;;;;;;;;;;5.10;99.90;;;;;;5078696;28;19973;-75
2022/01/08 11:50:57;;;;;;;;;;;4.90;99.90;;;;;;5090763;28;20017;-76
2022/01/08 11:53:24;;;;;;;;;;;4.90;99.90;;;;;;5074116;28;19926;-77
2022/01/08 11:55:51;;;;;;;;;;;4.90;99.90;;;;;;5071382;28;19928;-77
2022/01/08 11:58:30;;;;;;;;;;;4.90;99.90;;;;;;5072302;28;19927;-77
2022/01/08 12:01:00;;;;;;;;;;;5.10;99.90;;;;;;5074538;28;20321;-76
2022/01/08 12:03:36;;;;;;;;;;;5.30;99.90;;;;;;5074046;28;19924;-76
2022/01/08 12:06:15;;;;;;;;;;;5.40;99.90;;;;;;5076989;28;19977;-75
2022/01/08 12:08:45;;;;;;;;;;;5.30;99.90;;;;;;5081427;28;19920;-76
2022/01/08 12:11:12;;;;;;;;;;;5.10;99.90;;;;;;5082783;28;19927;-77
2022/01/08 12:13:42;;;;;;;;;;;4.80;99.90;;;;;;5060055;28;19935;-77
2022/01/08 12:16:29;;;;;;;;;;;4.90;99.90;;;;;;5088337;28;19919;-74
2022/01/08 12:18:55;;;;;;;;;;;5.00;99.90;;;;;;5097547;28;20629;-76
2022/01/08 12:21:52;;;;;;;;;;;5.50;99.90;;;;;;5072390;28;19926;-76
2022/01/08 12:24:27;;;;;;;;;;;5.80;99.90;;;;;;5052118;28;19920;-76
2022/01/08 12:26:59;;;;;;;;;;;6.00;99.90;;;;;;5070258;28;19925;-77
2022/01/08 12:29:41;;;;;;;;;;;6.00;99.90;;;;;;5044094;28;19921;-77
2022/01/08 12:32:36;;;;;;;;;;;5.50;99.90;;;;;;5051804;28;20042;-76
2022/01/08 12:35:03;;;;;;;;;;;4.90;99.90;;;;;;5065758;28;19928;-76
2022/01/08 12:37:39;;;;;;;;;;;4.50;99.90;;;;;;5064752;28;20474;-76
2022/01/08 12:40:07;;;;;;;;;;;4.30;99.90;;;;;;5046247;28;20015;-77
2022/01/08 12:42:35;;;;;;;;;;;4.00;99.90;;;;;;5069340;28;19920;-76
2022/01/08 12:45:04;;;;;;;;;;;3.80;99.90;;;;;;5064287;28;19920;-76
2022/01/08 12:47:37;;;;;;;;;;;3.60;99.90;;;;;;5047219;28;20735;-76
2022/01/08 12:50:16;;;;;;;;;;;3.40;99.90;;;;;;5040648;28;20352;-76
2022/01/08 12:53:02;;;;;;;;;;;3.30;99.90;;;;;;5043700;28;20030;-76
2022/01/08 12:55:29;;;;;;;;;;;3.30;99.90;;;;;;5067673;28;19959;-78
2022/01/08 12:57:56;;;;;;;;;;;3.00;99.90;;;;;;5065023;28;19921;-78
2022/01/08 13:00:23;;;;;;;;;;;3.00;99.90;;;;;;5056932;28;20019;-78
2022/01/08 13:02:50;;;;;;;;;;;3.00;99.90;;;;;;5082215;28;20557;-78
2022/01/08 13:05:17;;;;;;;;;;;3.00;99.90;;;;;;5069327;28;20390;-78
2022/01/08 13:07:50;;;;;;;;;;;3.10;99.90;;;;;;5069113;28;19920;-78
2022/01/08 13:10:18;;;;;;;;;;;3.10;99.90;;;;;;5078739;28;19996;-78
2022/01/08 13:13:01;;;;;;;;;;;3.10;99.90;;;;;;5069600;28;19930;-76
2022/01/08 13:15:29;;;;;;;;;;;3.20;99.90;;;;;;5082782;28;19963;-77
2022/01/08 13:18:14;;;;;;;;;;;3.20;99.90;;;;;;5080475;28;20000;-78
2022/01/08 13:20:41;;;;;;;;;;;3.30;99.90;;;;;;5078914;28;20015;-80
2022/01/08 13:23:10;;;;;;;;;;;3.20;99.90;;;;;;5070561;28;19927;-77
2022/01/08 13:25:36;;;;;;;;;;;3.20;99.90;;;;;;5081265;28;19930;-78
2022/01/08 13:28:03;;;;;;;;;;;3.20;99.90;;;;;;5089662;28;20006;-78
2022/01/08 13:30:30;;;;;;;;;;;3.20;99.90;;;;;;5079086;28;19924;-79
2022/01/08 13:33:04;;;;;;;;;;;3.20;99.90;;;;;;5075374;28;19924;-79
2022/01/08 13:35:31;;;;;;;;;;;3.20;99.90;;;;;;5075345;28;19920;-78
2022/01/08 13:37:58;;;;;;;;;;;3.20;99.90;;;;;;5081499;28;19924;-78
2022/01/08 13:40:25;;;;;;;;;;;3.20;99.90;;;;;;5077110;28;20013;-79
2022/01/08 13:42:52;;;;;;;;;;;3.20;99.90;;;;;;5086101;28;19927;-79
2022/01/08 13:45:20;;;;;;;;;;;3.20;99.90;;;;;;5072055;28;19935;-77
2022/01/08 13:47:51;;;;;;;;;;;3.10;99.90;;;;;;5085223;28;20093;-77
2022/01/08 13:50:24;;;;;;;;;;;3.10;99.90;;;;;;5088123;28;19928;-75
2022/01/08 13:53:01;;;;;;;;;;;3.10;99.90;;;;;;5085617;28;19924;-77
2022/01/08 13:55:40;;;;;;;;;;;3.10;99.90;;;;;;5098853;28;19920;-77
2022/01/08 13:58:08;;;;;;;;;;;3.20;99.90;;;;;;5071515;28;20378;-78
2022/01/08 14:00:39;;;;;;;;;;;3.20;99.90;;;;;;5090775;28;19928;-77
2022/01/08 14:03:21;;;;;;;;;;;3.10;99.90;;;;;;5080433;28;19986;-77
2022/01/08 14:05:50;;;;;;;;;;;3.10;99.90;;;;;;5067203;28;19928;-77
2022/01/08 14:08:17;;;;;;;;;;;3.00;99.90;;;;;;5080538;28;19924;-76
2022/01/08 14:10:46;;;;;;;;;;;3.00;99.90;;;;;;5069275;28;19931;-77
2022/01/08 14:13:17;;;;;;;;;;;3.00;99.90;;;;;;5084135;28;20602;-78
2022/01/08 14:15:45;;;;;;;;;;;3.00;99.90;;;;;;5085202;28;19924;-78
2022/01/08 14:18:21;;;;;;;;;;;3.00;99.90;;;;;;5075519;28;19934;-78
2022/01/08 14:20:51;;;;;;;;;;;3.00;99.90;;;;;;5083834;28;19920;-78
2022/01/08 14:23:20;;;;;;;;;;;2.90;99.90;;;;;;5077107;28;19920;-78
2022/01/08 14:25:47;;;;;;;;;;;2.90;99.90;;;;;;5074479;28;19930;-78
2022/01/08 14:28:15;;;;;;;;;;;2.80;99.90;;;;;;5082971;28;19989;-81
2022/01/08 14:30:41;;;;;;;;;;;2.80;99.90;;;;;;5088574;28;19978;-79
2022/01/08 14:33:08;;;;;;;;;;;2.80;99.90;;;;;;5087163;28;20026;-80
2022/01/08 14:35:35;;;;;;;;;;;2.80;99.90;;;;;;5078287;28;19927;-81
2022/01/08 14:38:02;;;;;;;;;;;2.70;99.90;;;;;;5081948;28;19980;-78
2022/01/08 14:40:31;;;;;;;;;;;2.70;99.90;;;;;;5088410;28;19926;-77
2022/01/08 14:43:05;;;;;;;;;;;2.70;99.90;;;;;;5076528;28;20267;-82
2022/01/08 14:45:33;;;;;;;;;;;2.70;99.90;;;;;;5080826;28;19920;-82
2022/01/08 14:48:00;;;;;;;;;;;2.70;99.90;;;;;;5082345;28;20544;-79
2022/01/08 14:50:28;;;;;;;;;;;2.60;99.90;;;;;;5083686;28;19938;-79
2022/01/08 14:52:56;;;;;;;;;;;2.60;99.90;;;;;;5068404;28;19920;-81
2022/01/08 14:55:35;;;;;;;;;;;2.60;99.90;;;;;;5083738;28;20011;-77
2022/01/08 14:58:02;;;;;;;;;;;2.60;99.90;;;;;;5079189;28;20018;-78
2022/01/08 15:00:30;;;;;;;;;;;2.60;99.90;;;;;;5078157;28;19920;-76
2022/01/08 15:02:58;;;;;;;;;;;2.60;99.90;;;;;;5078488;28;19920;-77